Time;durP1;ratioP1;P1;durP2;ratioP2;P2;SDS_P1;SDS_P2;PMS_P1;PMS_P2;Temp;Humidity;BMP_temperature;BMP_pressure;BME280_temperature;BME280_humidity;BME280_pressure;Samples;Min_cycle;Max_cycle;Signal;HPM_P1;HPM_P2
2023/09/01 00:00:59;;;;;;;1.73;1.63;;;;;;;15.17;63.92;101007.53;4964565;28;98918;-62
2023/09/01 00:03:24;;;;;;;2.20;2.10;;;;;;;15.13;63.92;101010.59;4966021;28;97179;-61
2023/09/01 00:05:49;;;;;;;3.30;2.30;;;;;;;15.13;64.01;101001.50;4964526;28;97142;-61
2023/09/01 00:08:15;;;;;;;5.27;2.30;;;;;;;15.12;63.81;101002.75;4964903;28;97080;-62
2023/09/01 00:10:40;;;;;;;4.60;2.20;;;;;;;15.10;63.97;101005.28;4966355;28;99453;-61
2023/09/01 00:13:05;;;;;;;3.03;2.17;;;;;;;15.08;64.04;101007.84;4966971;28;97048;-62
2023/09/01 00:15:31;;;;;;;1.97;1.77;;;;;;;15.07;63.84;101000.81;4965889;28;96938;-62
2023/09/01 00:17:57;;;;;;;2.40;2.20;;;;;;;15.07;63.95;101009.13;4967128;28;96961;-61
2023/09/01 00:20:22;;;;;;;2.50;2.40;;;;;;;15.05;64.06;101003.34;4964309;28;96659;-61
2023/09/01 00:22:48;;;;;;;2.17;2.07;;;;;;;15.03;64.09;100998.28;4962461;28;97502;-62
2023/09/01 00:25:13;;;;;;;2.07;1.97;;;;;;;15.02;63.90;101000.34;4961143;28;97385;-61
2023/09/01 00:27:38;;;;;;;2.40;2.30;;;;;;;15.02;64.00;101003.09;4964566;28;100427;-63
2023/09/01 00:30:04;;;;;;;2.03;1.87;;;;;;;15.03;64.03;100999.06;4962922;28;97260;-63
2023/09/01 00:32:29;;;;;;;2.10;2.00;;;;;;;15.00;64.01;101002.84;4967055;28;97315;-61
2023/09/01 00:34:58;;;;;;;2.67;2.47;;;;;;;15.00;64.13;101002.84;4969198;28;97061;-60
2023/09/01 00:37:24;;;;;;;2.37;2.27;;;;;;;14.99;63.91;100995.81;4969528;28;97201;-62
2023/09/01 00:39:50;;;;;;;2.30;2.20;;;;;;;14.96;63.87;100982.97;4970069;28;97359;-62
2023/09/01 00:42:15;;;;;;;2.83;2.63;;;;;;;14.95;64.05;100989.78;4970725;28;97347;-62
2023/09/01 00:44:40;;;;;;;2.37;2.27;;;;;;;14.94;63.99;100987.53;4974545;28;96724;-62
2023/09/01 00:47:06;;;;;;;2.73;2.33;;;;;;;14.93;63.99;100986.03;4967936;28;97236;-61
2023/09/01 00:49:33;;;;;;;3.97;2.90;;;;;;;14.91;63.88;100983.78;4956486;28;99117;-62
2023/09/01 00:51:59;;;;;;;3.10;2.90;;;;;;;14.89;63.96;100983.53;4971111;28;97197;-61
2023/09/01 00:54:25;;;;;;;3.73;3.30;;;;;;;14.88;64.02;100982.03;4973289;28;97290;-61
2023/09/01 00:56:54;;;;;;;5.63;3.23;;;;;;;14.87;63.96;100986.06;4968658;28;96847;-63
2023/09/01 00:59:20;;;;;;;5.20;3.23;;;;;;;14.86;64.08;100978.25;4966722;28;97390;-63
2023/09/01 01:01:46;;;;;;;3.30;3.10;;;;;;;14.86;64.00;100981.78;4968472;28;97093;-62
2023/09/01 01:04:14;;;;;;;3.33;3.13;;;;;;;14.85;64.01;100983.03;4967762;28;96756;-63
2023/09/01 01:06:48;;;;;;;3.53;3.27;;;;;;;14.83;64.00;100977.28;4966704;28;97201;-63
2023/09/01 01:09:38;;;;;;;3.80;3.47;;;;;;;14.81;64.07;100976.28;4967570;28;97115;-63
2023/09/01 01:12:28;;;;;;;4.90;3.30;;;;;;;14.77;63.98;100973.03;4969675;28;97672;-63
2023/09/01 01:14:56;;;;;;;4.57;3.50;;;;;;;14.71;63.95;100973.09;4967576;28;97119;-63
2023/09/01 01:17:23;;;;;;;3.50;3.30;;;;;;;14.71;63.97;100975.84;4969605;28;96925;-62
2023/09/01 01:19:51;;;;;;;3.40;3.20;;;;;;;14.69;63.89;100975.63;4966873;28;96950;-61
2023/09/01 01:22:34;;;;;;;4.77;3.80;;;;;;;14.66;64.08;100979.41;4967382;28;97063;-62
2023/09/01 01:25:00;;;;;;;3.67;3.40;;;;;;;14.64;63.92;100984.69;4969433;28;96709;-62
2023/09/01 01:27:26;;;;;;;3.37;3.17;;;;;;;14.61;63.98;100980.16;4968971;28;97204;-63
2023/09/01 01:29:51;;;;;;;3.50;3.20;;;;;;;14.62;63.95;100978.16;4969854;28;97068;-61
2023/09/01 01:32:16;;;;;;;3.80;3.50;;;;;;;14.60;64.05;100975.91;4968401;28;104744;-62
2023/09/01 01:34:49;;;;;;;4.00;3.60;;;;;;;14.58;64.00;100975.66;4968354;28;96982;-62
2023/09/01 01:37:29;;;;;;;3.80;3.50;;;;;;;14.57;64.02;100978.97;4969237;28;96998;-62
2023/09/01 01:39:58;;;;;;;4.03;3.80;;;;;;;14.55;64.02;100978.69;4965997;28;97825;-61
2023/09/01 01:42:28;;;;;;;3.77;3.50;;;;;;;14.52;63.96;100986.03;4955247;28;99928;-63
2023/09/01 01:44:56;;;;;;;4.57;4.17;;;;;;;14.50;63.92;100985.78;4968354;28;97075;-62
2023/09/01 01:47:22;;;;;;;4.60;4.20;;;;;;;14.48;64.00;100984.78;4968826;28;97148;-62
2023/09/01 01:49:47;;;;;;;4.90;4.47;;;;;;;14.46;63.99;100992.88;4969481;28;96759;-62
2023/09/01 01:52:13;;;;;;;4.30;4.00;;;;;;;14.43;63.96;100983.56;4967588;28;97902;-63
2023/09/01 01:54:38;;;;;;;3.97;3.67;;;;;;;14.42;63.99;100989.59;4967816;28;97485;-63
2023/09/01 01:57:04;;;;;;;4.90;4.40;;;;;;;14.41;64.05;100996.41;4972430;28;96888;-61
2023/09/01 01:59:29;;;;;;;4.70;4.40;;;;;;;14.40;64.02;100992.88;4965904;28;96846;-60
2023/09/01 02:01:55;;;;;;;4.90;4.60;;;;;;;14.39;64.16;100996.16;4967603;28;101361;-60
2023/09/01 02:04:20;;;;;;;4.50;4.10;;;;;;;14.36;64.05;101003.47;4970968;28;97075;-61
2023/09/01 02:06:45;;;;;;;4.70;4.30;;;;;;;14.34;63.96;101011.53;4967719;28;99424;-63
2023/09/01 02:09:12;;;;;;;4.37;4.00;;;;;;;14.31;64.00;100998.69;4963956;28;105432;-62
2023/09/01 02:11:37;;;;;;;4.90;4.50;;;;;;;14.28;63.93;101000.44;4967690;28;97219;-61
2023/09/01 02:14:02;;;;;;;4.20;3.90;;;;;;;14.27;63.85;101003.72;4968694;28;96955;-60
2023/09/01 02:16:28;;;;;;;4.60;4.20;;;;;;;14.26;64.09;101008.50;4968652;28;97206;-62
2023/09/01 02:18:53;;;;;;;4.20;3.90;;;;;;;14.22;64.02;100996.94;4966764;28;97376;-62
2023/09/01 02:21:22;;;;;;;5.60;4.60;;;;;;;14.20;63.89;101002.22;4967114;28;100752;-62
2023/09/01 02:23:48;;;;;;;4.80;3.90;;;;;;;14.20;63.97;101007.00;4966106;28;96845;-61
2023/09/01 02:26:20;;;;;;;5.13;4.63;;;;;;;14.21;64.14;101014.06;4969640;28;96888;-62
2023/09/01 02:28:46;;;;;;;5.20;4.87;;;;;;;14.18;64.14;101010.28;4966623;28;97988;-62
2023/09/01 02:31:12;;;;;;;4.67;4.27;;;;;;;14.17;63.86;101008.03;4967642;28;97231;-63
2023/09/01 02:33:37;;;;;;;5.17;4.67;;;;;;;14.14;63.72;101012.56;4968171;28;96756;-61
2023/09/01 02:36:24;;;;;;;4.43;4.13;;;;;;;14.12;63.94;101020.63;4966604;28;97148;-63
2023/09/01 02:38:50;;;;;;;5.20;4.80;;;;;;;14.07;63.73;101018.63;4960290;28;97438;-64
2023/09/01 02:41:16;;;;;;;6.20;5.27;;;;;;;14.04;63.69;101019.63;4968421;28;97620;-62
2023/09/01 02:43:41;;;;;;;7.83;5.10;;;;;;;13.97;63.80;101013.88;4967229;28;97147;-61
2023/09/01 02:46:06;;;;;;;5.80;5.30;;;;;;;13.93;63.92;101025.22;4967834;28;96924;-62
2023/09/01 02:48:32;;;;;;;8.90;5.00;;;;;;;13.92;63.89;101023.69;4965236;28;97090;-61
2023/09/01 02:50:58;;;;;;;5.40;5.00;;;;;;;13.92;63.92;101012.63;4963893;28;98182;-61
2023/09/01 02:53:24;;;;;;;5.20;4.80;;;;;;;13.92;63.92;101015.41;4967096;28;97655;-61
2023/09/01 02:55:49;;;;;;;5.73;5.10;;;;;;;13.92;63.93;101017.41;4972415;28;97055;-61
2023/09/01 02:58:14;;;;;;;4.80;4.40;;;;;;;13.88;63.94;101022.44;4965249;28;98496;-62
2023/09/01 03:00:40;;;;;;;6.23;5.63;;;;;;;13.86;63.93;101024.97;4965619;28;107957;-61
2023/09/01 03:03:06;;;;;;;5.20;4.80;;;;;;;13.87;63.94;101021.69;4970094;28;96999;-63
2023/09/01 03:05:31;;;;;;;4.93;4.57;;;;;;;13.87;63.95;101020.94;4964851;28;97194;-62
2023/09/01 03:07:58;;;;;;;5.27;4.77;;;;;;;13.86;64.11;101019.44;4961142;28;96765;-61
2023/09/01 03:10:23;;;;;;;5.30;4.90;;;;;;;13.84;63.77;101019.94;4966474;28;97832;-63
2023/09/01 03:12:49;;;;;;;5.43;4.93;;;;;;;13.80;63.61;101013.16;4965823;28;96847;-61
2023/09/01 03:15:15;;;;;;;5.50;5.10;;;;;;;13.79;63.86;101019.94;4968935;28;97491;-61
2023/09/01 03:17:40;;;;;;;5.00;4.60;;;;;;;13.74;63.83;101010.41;4966862;28;97287;-61
2023/09/01 03:20:09;;;;;;;6.10;5.60;;;;;;;13.71;63.82;101008.66;4963497;28;97084;-63
2023/09/01 03:22:34;;;;;;;5.20;4.80;;;;;;;13.74;63.83;101009.66;4962922;28;96906;-63
2023/09/01 03:24:59;;;;;;;6.77;5.87;;;;;;;13.73;64.03;101016.44;4963958;28;96688;-62
2023/09/01 03:27:25;;;;;;;5.50;5.00;;;;;;;13.72;63.83;101012.91;4965522;28;96886;-62
2023/09/01 03:29:53;;;;;;;5.63;5.07;;;;;;;13.70;63.88;101012.66;4966883;28;97702;-62
2023/09/01 03:32:18;;;;;;;5.73;5.10;;;;;;;13.67;63.87;101002.63;4963732;28;96726;-62
2023/09/01 03:34:44;;;;;;;5.80;5.20;;;;;;;13.65;63.69;101007.88;4963940;28;97850;-60
2023/09/01 03:37:12;;;;;;;5.93;5.40;;;;;;;13.64;63.86;101011.94;4963244;28;102696;-60
2023/09/01 03:39:37;;;;;;;9.93;6.23;;;;;;;13.63;63.94;101017.97;4966890;28;97189;-62
2023/09/01 03:42:03;;;;;;;5.77;5.27;;;;;;;13.62;63.87;101005.41;4967683;28;97699;-61
2023/09/01 03:44:29;;;;;;;5.97;5.20;;;;;;;13.62;63.87;101016.44;4966505;28;96992;-60
2023/09/01 03:46:54;;;;;;;6.47;5.90;;;;;;;13.59;63.74;101022.97;4966149;28;97101;-61
2023/09/01 03:49:20;;;;;;;6.23;5.67;;;;;;;13.57;63.82;101017.97;4964697;28;97245;-60
2023/09/01 03:51:46;;;;;;;5.80;5.30;;;;;;;13.54;63.68;101021.75;4969142;28;97075;-61
2023/09/01 03:54:11;;;;;;;10.23;6.47;;;;;;;13.52;64.01;101013.19;4967795;28;97521;-61
2023/09/01 03:56:36;;;;;;;6.53;6.00;;;;;;;13.50;63.89;101021.97;4966098;28;97443;-61
2023/09/01 03:59:02;;;;;;;7.90;6.17;;;;;;;13.49;63.92;101019.72;4964780;28;96994;-61
2023/09/01 04:01:27;;;;;;;6.63;6.03;;;;;;;13.47;63.86;101017.47;4971473;28;97206;-62
2023/09/01 04:03:52;;;;;;;6.27;5.73;;;;;;;13.46;63.98;101029.78;4969300;28;97595;-62
2023/09/01 04:06:18;;;;;;;6.37;5.87;;;;;;;13.44;63.73;101028.78;4969098;28;97808;-62
2023/09/01 04:08:43;;;;;;;6.17;5.67;;;;;;;13.43;63.82;101022.47;4967768;28;96768;-62
2023/09/01 04:11:09;;;;;;;6.20;5.60;;;;;;;13.41;63.78;101027.75;4970314;28;96847;-62
2023/09/01 04:13:35;;;;;;;5.50;5.10;;;;;;;13.41;63.73;101024.28;4970583;28;97542;-62
2023/09/01 04:16:01;;;;;;;5.40;5.00;;;;;;;13.39;63.89;101027.50;4972761;28;97589;-62
2023/09/01 04:18:26;;;;;;;6.30;5.77;;;;;;;13.38;63.69;101023.25;4969724;28;96871;-62
2023/09/01 04:20:53;;;;;;;9.90;5.47;;;;;;;13.38;63.81;101020.50;4969555;28;96737;-62
2023/09/01 04:23:19;;;;;;;4.63;4.27;;;;;;;13.36;63.79;101016.72;4967588;28;97156;-62
2023/09/01 04:25:46;;;;;;;5.77;5.27;;;;;;;13.35;63.87;101021.50;4968105;28;97342;-62
2023/09/01 04:28:15;;;;;;;5.60;5.20;;;;;;;13.35;63.67;101023.50;4967760;28;96775;-62
2023/09/01 04:30:42;;;;;;;5.43;4.93;;;;;;;13.34;63.75;101033.81;4969218;28;96959;-62
2023/09/01 04:33:07;;;;;;;5.50;5.00;;;;;;;13.33;63.75;101032.28;4971075;28;97068;-62
2023/09/01 04:35:33;;;;;;;5.30;4.80;;;;;;;13.32;63.92;101033.53;4966904;28;98912;-63
2023/09/01 04:37:59;;;;;;;6.73;5.60;;;;;;;13.31;63.94;101034.03;4971641;28;97022;-62
2023/09/01 04:40:25;;;;;;;5.53;5.03;;;;;;;13.30;63.74;101038.81;4968231;28;97019;-62
2023/09/01 04:42:51;;;;;;;5.67;5.17;;;;;;;13.31;63.86;101048.63;4967177;28;96810;-62
2023/09/01 04:45:17;;;;;;;5.80;5.30;;;;;;;13.30;64.00;101044.34;4967209;28;97965;-62
2023/09/01 04:47:42;;;;;;;5.97;5.37;;;;;;;13.31;63.77;101048.63;4967287;28;97185;-62
2023/09/01 04:50:08;;;;;;;7.33;5.07;;;;;;;13.29;63.73;101055.91;4966601;28;97480;-62
2023/09/01 04:52:33;;;;;;;5.80;5.30;;;;;;;13.29;63.69;101051.13;4969757;28;96827;-62
2023/09/01 04:54:58;;;;;;;5.97;5.37;;;;;;;13.29;63.87;101051.13;4972586;28;97210;-62
2023/09/01 04:57:24;;;;;;;4.80;4.43;;;;;;;13.30;63.98;101038.81;4969924;28;105174;-62
2023/09/01 04:59:50;;;;;;;5.87;5.37;;;;;;;13.31;63.94;101051.38;4970064;28;98306;-62
2023/09/01 05:02:16;;;;;;;5.43;4.93;;;;;;;13.31;63.78;101048.63;4970349;28;97088;-62
2023/09/01 05:04:42;;;;;;;5.57;5.07;;;;;;;13.31;63.86;101043.09;4965932;28;96773;-61
2023/09/01 05:07:07;;;;;;;5.20;4.70;;;;;;;13.34;63.93;101047.63;4968634;28;97498;-61
2023/09/01 05:09:32;;;;;;;4.70;4.30;;;;;;;13.35;64.15;101051.88;4968547;28;96978;-60
2023/09/01 05:11:57;;;;;;;4.80;4.50;;;;;;;13.36;63.94;101052.66;4967756;28;97248;-62
2023/09/01 05:14:23;;;;;;;5.70;4.30;;;;;;;13.38;63.84;101045.38;4967584;28;103883;-60
2023/09/01 05:16:48;;;;;;;5.57;5.13;;;;;;;13.37;63.91;101041.09;4968269;28;107572;-60
2023/09/01 05:19:14;;;;;;;7.53;5.00;;;;;;;13.36;63.78;101038.81;4969120;28;97359;-62
2023/09/01 05:21:40;;;;;;;4.53;4.23;;;;;;;13.38;63.99;101047.38;4969755;28;97428;-60
2023/09/01 05:24:06;;;;;;;5.23;4.83;;;;;;;13.41;64.04;101058.16;4969937;28;106390;-62
2023/09/01 05:26:31;;;;;;;5.67;5.17;;;;;;;13.45;64.11;101058.66;4965260;28;99717;-60
2023/09/01 05:28:56;;;;;;;5.87;4.80;;;;;;;13.46;63.91;101053.91;4964851;28;97022;-61
2023/09/01 05:31:21;;;;;;;5.70;5.20;;;;;;;13.47;64.12;101061.72;4966241;28;102237;-60
2023/09/01 05:33:47;;;;;;;5.90;4.63;;;;;;;13.49;63.99;101066.72;4970894;28;107010;-61
2023/09/01 05:36:12;;;;;;;6.93;6.23;;;;;;;13.53;63.99;101061.69;4968392;28;97135;-61
2023/09/01 05:38:37;;;;;;;4.63;4.30;;;;;;;13.53;64.05;101056.94;4969511;28;97345;-60
2023/09/01 05:41:05;;;;;;;4.90;4.57;;;;;;;13.56;64.12;101057.94;4966646;28;96927;-61
2023/09/01 05:43:30;;;;;;;6.00;5.40;;;;;;;13.59;64.13;101058.91;4969682;28;97153;-60
2023/09/01 05:45:56;;;;;;;4.93;4.40;;;;;;;13.60;63.94;101063.97;4965121;28;97190;-61
2023/09/01 05:48:21;;;;;;;5.43;4.93;;;;;;;13.62;64.33;101064.22;4971407;28;96965;-62
2023/09/01 05:50:46;;;;;;;6.23;5.73;;;;;;;13.64;64.15;101070.00;4967387;28;97265;-60
2023/09/01 05:53:12;;;;;;;5.70;5.03;;;;;;;13.65;64.18;101077.00;4970295;28;108676;-61
2023/09/01 05:55:37;;;;;;;5.53;5.13;;;;;;;13.70;64.17;101072.75;4969116;28;97099;-61
2023/09/01 05:58:03;;;;;;;5.97;5.37;;;;;;;13.74;64.29;101070.50;4969100;28;97320;-61
2023/09/01 06:00:29;;;;;;;6.93;6.23;;;;;;;13.78;64.23;101073.75;4966418;28;97293;-61
2023/09/01 06:02:55;;;;;;;7.10;5.87;;;;;;;13.80;64.02;101074.78;4965367;28;97117;-61
2023/09/01 06:05:20;;;;;;;6.87;6.27;;;;;;;13.83;64.22;101082.03;4967710;28;97144;-61
2023/09/01 06:07:47;;;;;;;6.63;6.03;;;;;;;13.89;64.22;101087.59;4966997;28;96942;-60
2023/09/01 06:10:12;;;;;;;6.57;6.00;;;;;;;13.91;64.31;101083.03;4963835;28;97137;-61
2023/09/01 06:12:37;;;;;;;7.27;6.57;;;;;;;13.90;64.48;101081.53;4965389;28;97369;-60
2023/09/01 06:15:03;;;;;;;7.67;6.87;;;;;;;13.97;64.56;101088.56;4968815;28;103089;-60
2023/09/01 06:17:29;;;;;;;7.50;6.27;;;;;;;14.02;64.51;101096.84;4963876;28;96971;-60
2023/09/01 06:19:54;;;;;;;8.83;7.63;;;;;;;14.06;64.60;101093.84;4968904;28;97976;-61
2023/09/01 06:22:20;;;;;;;8.10;7.30;;;;;;;14.11;64.52;101091.06;4964248;28;109247;-61
2023/09/01 06:24:45;;;;;;;11.50;8.97;;;;;;;14.17;64.46;101102.88;4971669;28;96812;-61
2023/09/01 06:27:10;;;;;;;8.60;7.53;;;;;;;14.21;64.58;101100.59;4963107;28;97067;-61
2023/09/01 06:29:36;;;;;;;9.80;8.70;;;;;;;14.26;64.44;101099.09;4966578;28;96991;-61
2023/09/01 06:32:02;;;;;;;10.73;9.57;;;;;;;14.32;64.61;101096.31;4963115;28;110525;-61
2023/09/01 06:34:28;;;;;;;9.27;8.23;;;;;;;14.37;64.64;101132.31;4964472;28;99222;-61
2023/09/01 06:36:53;;;;;;;9.67;8.77;;;;;;;14.43;64.73;101102.59;4958534;28;98710;-60
2023/09/01 06:39:18;;;;;;;9.90;8.67;;;;;;;14.47;64.72;101100.31;4964914;28;97000;-60
2023/09/01 06:41:45;;;;;;;10.77;9.00;;;;;;;14.52;64.76;101099.56;4966157;28;113821;-61
2023/09/01 06:44:11;;;;;;;10.30;9.07;;;;;;;14.59;64.77;101101.03;4966372;28;96914;-60
2023/09/01 06:46:36;;;;;;;8.83;8.03;;;;;;;14.65;64.95;101107.31;4970268;28;97407;-60
2023/09/01 06:49:02;;;;;;;9.27;8.37;;;;;;;14.72;65.00;101107.50;4967573;28;97608;-61
2023/09/01 06:51:28;;;;;;;9.57;7.43;;;;;;;14.80;64.91;101113.28;4967954;28;96765;-60
2023/09/01 06:53:54;;;;;;;8.90;7.97;;;;;;;14.87;65.01;101093.38;4971222;28;97393;-60
2023/09/01 06:56:20;;;;;;;9.93;8.50;;;;;;;14.98;65.00;101101.63;4967582;28;97091;-61
2023/09/01 06:58:45;;;;;;;9.77;8.40;;;;;;;15.07;65.09;101103.34;4966345;28;96844;-60
2023/09/01 07:01:11;;;;;;;9.23;8.10;;;;;;;15.15;65.13;101104.28;4964381;28;114301;-60
2023/09/01 07:03:37;;;;;;;10.23;9.20;;;;;;;15.24;65.15;101106.75;4968634;28;98032;-61
2023/09/01 07:06:03;;;;;;;14.90;9.57;;;;;;;15.33;65.19;101107.19;4966453;28;97135;-61
2023/09/01 07:08:29;;;;;;;10.60;9.50;;;;;;;15.41;65.15;101110.16;4967234;28;97243;-60
2023/09/01 07:11:06;;;;;;;10.73;8.73;;;;;;;15.48;65.58;101113.19;4967776;28;96929;-61
2023/09/01 07:13:32;;;;;;;9.53;8.53;;;;;;;15.57;65.40;101114.88;4967780;28;97326;-61
2023/09/01 07:15:57;;;;;;;11.50;8.00;;;;;;;15.63;65.35;101116.34;4964142;28;97048;-61
2023/09/01 07:18:23;;;;;;;11.70;8.60;;;;;;;15.70;65.23;101123.34;4963366;28;96912;-60
2023/09/01 07:20:50;;;;;;;13.43;8.60;;;;;;;15.82;65.78;101124.00;4970914;28;97136;-60
2023/09/01 07:23:15;;;;;;;12.70;7.90;;;;;;;15.94;65.87;101122.66;4971535;28;97749;-61
2023/09/01 07:25:42;;;;;;;12.33;8.90;;;;;;;16.04;65.86;101123.81;4968590;28;96727;-61
2023/09/01 07:28:07;;;;;;;12.13;9.03;;;;;;;16.13;65.83;101115.16;4965895;28;98823;-60
2023/09/01 07:30:33;;;;;;;11.47;10.27;;;;;;;16.22;65.95;101123.13;4967363;28;99996;-60
2023/09/01 07:32:59;;;;;;;15.90;9.90;;;;;;;16.37;66.02;101115.91;4967396;28;96975;-60
2023/09/01 07:35:25;;;;;;;10.13;9.13;;;;;;;16.51;65.88;101118.84;4969187;28;96638;-60
2023/09/01 07:37:50;;;;;;;12.20;9.20;;;;;;;16.62;66.13;101115.94;4966098;28;97145;-60
2023/09/01 07:40:16;;;;;;;11.47;9.50;;;;;;;16.70;65.97;101116.84;4964794;28;97048;-60
2023/09/01 07:42:41;;;;;;;11.50;9.60;;;;;;;16.83;66.07;101105.81;4965835;28;97045;-59
2023/09/01 07:45:07;;;;;;;13.10;9.33;;;;;;;16.93;66.01;101121.59;4967241;28;96753;-60
2023/09/01 07:47:33;;;;;;;12.20;9.17;;;;;;;17.05;66.13;101130.53;4966861;28;96958;-59
2023/09/01 07:49:58;;;;;;;14.13;10.60;;;;;;;17.16;65.93;101131.16;4963772;28;98140;-60
2023/09/01 07:52:24;;;;;;;13.53;9.67;;;;;;;17.25;65.97;101130.75;4964722;28;97004;-60
2023/09/01 07:54:49;;;;;;;10.40;9.30;;;;;;;17.36;65.97;101127.06;4968148;28;97427;-60
2023/09/01 07:57:14;;;;;;;11.17;8.93;;;;;;;17.48;65.92;101127.66;4965566;28;97237;-61
2023/09/01 07:59:40;;;;;;;11.87;9.60;;;;;;;17.56;65.94;101129.31;4966330;28;99170;-60
2023/09/01 08:02:05;;;;;;;11.03;8.03;;;;;;;17.63;65.93;101122.38;4960890;28;97292;-61
2023/09/01 08:04:31;;;;;;;12.57;8.27;;;;;;;17.72;65.94;101127.56;4964504;28;96555;-61
2023/09/01 08:06:59;;;;;;;13.13;8.10;;;;;;;17.78;65.81;101120.59;4965336;28;96766;-61
2023/09/01 08:09:25;;;;;;;13.70;8.50;;;;;;;17.90;65.88;101126.75;4965567;28;96985;-61
2023/09/01 08:11:50;;;;;;;10.30;8.40;;;;;;;18.04;65.75;101122.72;4967597;28;97293;-61
2023/09/01 08:14:15;;;;;;;8.70;7.60;;;;;;;18.12;65.67;101137.50;4969248;28;97240;-61
2023/09/01 08:16:41;;;;;;;9.43;8.10;;;;;;;18.19;65.66;101133.34;4969560;28;96886;-61
2023/09/01 08:19:06;;;;;;;9.47;8.47;;;;;;;18.25;65.43;101131.22;4965762;28;99831;-61
2023/09/01 08:21:32;;;;;;;11.43;7.77;;;;;;;18.32;65.35;101136.16;4967749;28;97470;-61
2023/09/01 08:23:58;;;;;;;7.73;6.60;;;;;;;18.43;65.27;101130.38;4968863;28;96862;-61
2023/09/01 08:26:23;;;;;;;10.83;6.97;;;;;;;18.46;64.94;101129.31;4965237;28;97152;-61
2023/09/01 08:28:48;;;;;;;7.03;6.03;;;;;;;18.58;64.96;101127.81;4968623;28;96949;-61
2023/09/01 08:31:14;;;;;;;9.03;6.53;;;;;;;18.68;65.07;101131.66;4967262;28;97162;-62
2023/09/01 08:33:40;;;;;;;12.23;7.43;;;;;;;18.78;64.73;101116.03;4962239;28;97196;-63
2023/09/01 08:36:05;;;;;;;9.70;7.40;;;;;;;18.90;64.63;101125.63;4965243;28;97461;-63
2023/09/01 08:38:31;;;;;;;8.03;7.03;;;;;;;18.95;64.52;101122.00;4964913;28;97417;-62
2023/09/01 08:41:04;;;;;;;8.10;6.53;;;;;;;19.06;64.58;101115.41;4963113;28;97146;-62
2023/09/01 08:43:34;;;;;;;8.50;7.23;;;;;;;19.15;64.33;101118.50;4963280;28;97085;-62
2023/09/01 08:46:03;;;;;;;8.10;6.47;;;;;;;19.24;64.52;101112.44;4964887;28;97041;-61
2023/09/01 08:48:29;;;;;;;7.10;6.40;;;;;;;19.34;64.47;101121.91;4966858;28;97506;-62
2023/09/01 08:50:55;;;;;;;9.47;6.23;;;;;;;19.49;64.45;101117.75;4969309;28;97121;-62
2023/09/01 08:53:21;;;;;;;6.27;5.67;;;;;;;19.59;64.17;101125.13;4973631;28;97004;-62
2023/09/01 08:55:46;;;;;;;9.20;5.03;;;;;;;19.69;64.13;101131.75;4969864;28;96928;-63
2023/09/01 08:58:12;;;;;;;9.13;6.10;;;;;;;19.79;64.18;101129.22;4965630;28;97918;-62
2023/09/01 09:00:37;;;;;;;9.50;5.97;;;;;;;19.85;64.09;101135.41;4971034;28;97170;-62
2023/09/01 09:03:03;;;;;;;6.63;5.30;;;;;;;19.95;63.85;101120.44;4969285;28;97420;-66
2023/09/01 09:05:30;;;;;;;7.77;5.70;;;;;;;20.05;63.69;101127.00;4970856;28;97281;-62
2023/09/01 09:07:57;;;;;;;7.73;5.17;;;;;;;20.17;63.47;101121.91;4968751;28;98071;-61
2023/09/01 09:10:50;;;;;;;8.30;5.37;;;;;;;20.32;62.59;101130.41;4964572;28;97156;-64
2023/09/01 09:13:24;;;;;;;4.30;3.90;;;;;;;20.48;62.86;101123.63;4967191;28;97086;-65
2023/09/01 09:16:05;;;;;;;7.93;4.60;;;;;;;20.58;63.33;101119.00;4968967;28;97034;-63
2023/09/01 09:18:31;;;;;;;4.30;4.00;;;;;;;20.68;63.16;101136.78;4970775;28;97560;-64
2023/09/01 09:20:56;;;;;;;3.53;3.23;;;;;;;20.77;63.03;101122.28;4972046;28;97702;-62
2023/09/01 09:23:21;;;;;;;8.20;3.73;;;;;;;20.86;63.02;101123.78;4968000;28;96820;-66
2023/09/01 09:25:49;;;;;;;4.30;3.90;;;;;;;20.96;62.75;101116.41;4970678;28;96990;-63
2023/09/01 09:28:16;;;;;;;6.77;4.30;;;;;;;21.05;62.44;101117.94;4971158;28;97055;-63
2023/09/01 09:30:52;;;;;;;7.07;4.83;;;;;;;21.12;61.29;101134.03;4965646;28;97089;-64
2023/09/01 09:33:31;;;;;;;5.47;4.47;;;;;;;21.19;61.50;101116.47;4966965;28;97082;-62
2023/09/01 09:35:57;;;;;;;6.40;4.37;;;;;;;21.21;61.65;101114.63;4967302;28;96996;-63
2023/09/01 09:38:22;;;;;;;5.27;4.20;;;;;;;21.29;61.62;101120.25;4969933;28;97129;-64
2023/09/01 09:41:02;;;;;;;7.83;4.87;;;;;;;21.35;61.43;101121.59;4966977;28;97187;-62
2023/09/01 09:43:30;;;;;;;6.73;4.43;;;;;;;21.37;61.35;101129.41;4965682;28;97211;-65
2023/09/01 09:45:55;;;;;;;7.07;4.13;;;;;;;21.42;61.55;101134.84;4968846;28;97205;-63
2023/09/01 09:48:21;;;;;;;8.90;4.53;;;;;;;21.46;61.08;101126.84;4965908;28;97378;-64
2023/09/01 09:50:50;;;;;;;7.17;4.80;;;;;;;21.46;60.97;101126.06;4968809;28;97050;-63
2023/09/01 09:53:21;;;;;;;5.30;4.80;;;;;;;21.48;60.54;101134.66;4966613;28;96745;-64
2023/09/01 09:55:49;;;;;;;5.83;3.80;;;;;;;21.43;60.72;101141.19;4970285;28;97043;-62
2023/09/01 09:58:17;;;;;;;6.83;3.90;;;;;;;21.41;60.84;101130.53;4968009;28;97229;-64
2023/09/01 10:00:58;;;;;;;8.67;4.30;;;;;;;21.39;60.77;101126.81;4967061;28;97638;-63
2023/09/01 10:03:29;;;;;;;6.50;4.43;;;;;;;21.38;60.32;101130.91;4967819;28;100325;-65
2023/09/01 10:05:54;;;;;;;5.07;4.03;;;;;;;21.38;60.40;101142.13;4965447;28;97273;-63
2023/09/01 10:08:23;;;;;;;5.20;3.80;;;;;;;21.46;60.44;101142.88;4961693;28;97941;-65
2023/09/01 10:10:51;;;;;;;3.53;3.23;;;;;;;21.54;60.66;101143.63;4969987;28;97194;-64
2023/09/01 10:13:19;;;;;;;6.00;3.87;;;;;;;21.63;60.57;101149.44;4968672;28;97193;-63
2023/09/01 10:15:45;;;;;;;6.93;3.67;;;;;;;21.66;60.46;101139.19;4967798;28;99729;-62
2023/09/01 10:18:10;;;;;;;5.10;3.00;;;;;;;21.69;60.37;101140.13;4968004;28;108341;-63
2023/09/01 10:20:40;;;;;;;8.20;3.87;;;;;;;21.75;60.42;101137.88;4959563;28;97106;-62
2023/09/01 10:23:07;;;;;;;5.63;3.70;;;;;;;21.81;60.08;101135.63;4967469;28;97058;-63
2023/09/01 10:25:34;;;;;;;3.60;3.27;;;;;;;21.83;59.85;101138.66;4958890;28;97931;-64
2023/09/01 10:28:07;;;;;;;5.67;3.77;;;;;;;21.90;59.45;101140.72;4957661;28;97626;-63
2023/09/01 10:30:36;;;;;;;5.43;3.57;;;;;;;21.96;59.29;101139.22;4966375;28;97672;-63
2023/09/01 10:33:22;;;;;;;4.53;3.37;;;;;;;22.00;58.18;101134.00;4967680;28;97377;-64
2023/09/01 10:35:51;;;;;;;5.10;3.63;;;;;;;22.04;58.90;101145.56;4958269;28;97551;-63
2023/09/01 10:38:17;;;;;;;5.17;3.80;;;;;;;22.08;58.91;101142.41;4966858;28;97128;-63
2023/09/01 10:40:51;;;;;;;4.80;3.47;;;;;;;22.13;58.52;101142.22;4965587;28;97922;-63
2023/09/01 10:43:31;;;;;;;6.20;3.07;;;;;;;22.21;58.37;101139.41;4964696;28;96926;-63
2023/09/01 10:46:11;;;;;;;3.43;3.10;;;;;;;22.26;58.67;101136.41;4967614;28;97487;-63
2023/09/01 10:48:57;;;;;;;3.80;3.40;;;;;;;22.32;58.00;101134.16;4964341;28;97422;-62
2023/09/01 10:51:30;;;;;;;6.93;3.57;;;;;;;22.44;58.29;101140.13;4962369;28;97009;-64
2023/09/01 10:53:57;;;;;;;4.70;3.10;;;;;;;22.54;58.42;101137.47;4967295;28;97217;-64
2023/09/01 10:56:24;;;;;;;4.23;3.30;;;;;;;22.62;58.00;101146.66;4964438;28;97616;-62
2023/09/01 10:58:51;;;;;;;5.33;3.60;;;;;;;22.63;57.84;101159.38;4966696;28;97314;-64
2023/09/01 11:01:39;;;;;;;5.93;4.10;;;;;;;22.65;56.38;101148.34;4962959;28;97196;-64
2023/09/01 11:04:14;;;;;;;3.63;2.70;;;;;;;22.63;56.87;101156.56;4961511;28;96725;-65
2023/09/01 11:07:03;;;;;;;4.97;3.00;;;;;;;22.59;56.49;101165.34;4969261;28;97059;-65
2023/09/01 11:09:34;;;;;;;6.10;3.17;;;;;;;22.60;56.94;101161.25;4962465;28;97287;-65
2023/09/01 11:12:07;;;;;;;4.53;3.13;;;;;;;22.62;56.57;101164.22;4965160;28;100129;-65
2023/09/01 11:14:34;;;;;;;3.23;2.40;;;;;;;22.64;57.08;101160.84;4964629;28;97362;-65
2023/09/01 11:17:01;;;;;;;4.63;3.23;;;;;;;22.68;57.24;101152.78;4961199;28;96870;-65
2023/09/01 11:19:27;;;;;;;3.30;2.80;;;;;;;22.78;56.97;101153.72;4960122;28;97378;-65
2023/09/01 11:21:53;;;;;;;3.80;2.80;;;;;;;22.81;56.52;101144.16;4965616;28;97242;-64
2023/09/01 11:24:21;;;;;;;4.90;2.40;;;;;;;22.83;56.62;101147.88;4965995;28;97446;-64